Time;durP1;ratioP1;P1;durP2;ratioP2;P2;SDS_P1;SDS_P2;PMS_P1;PMS_P2;Temp;Humidity;BMP_temperature;BMP_pressure;BME280_temperature;BME280_humidity;BME280_pressure;Samples;Min_cycle;Max_cycle;Signal;HPM_P1;HPM_P2
2023/08/03 00:01:10;;;;;;;10.00;9.00;;;;;;;24.04;61.19;94423.00;5116161;28;20535;-66
2023/08/03 00:03:37;;;;;;;10.10;9.10;;;;;;;23.99;61.42;94426.38;5115813;28;20200;-66
2023/08/03 00:06:09;;;;;;;10.52;9.52;;;;;;;23.95;61.51;94432.13;5115300;28;20503;-66
2023/08/03 00:08:36;;;;;;;10.40;9.50;;;;;;;23.91;61.24;94434.28;5116133;28;20200;-66
2023/08/03 00:11:03;;;;;;;11.43;10.32;;;;;;;23.88;61.91;94435.19;5115907;28;20211;-66
2023/08/03 00:13:33;;;;;;;10.45;9.43;;;;;;;23.82;61.89;94425.75;5115661;28;20212;-66
2023/08/03 00:16:00;;;;;;;11.05;10.05;;;;;;;23.82;61.86;94430.59;5115944;28;20188;-65
2023/08/03 00:18:28;;;;;;;9.98;8.98;;;;;;;23.81;61.96;94431.84;5115672;28;20227;-65
2023/08/03 00:20:56;;;;;;;10.35;9.32;;;;;;;23.77;61.96;94421.47;5115501;28;20206;-66
2023/08/03 00:23:26;;;;;;;9.82;8.93;;;;;;;23.68;61.97;94429.84;5115135;28;20195;-66
2023/08/03 00:25:54;;;;;;;9.60;8.85;;;;;;;23.62;62.23;94428.03;5115453;28;20233;-66
2023/08/03 00:28:22;;;;;;;10.15;9.15;;;;;;;23.58;61.99;94430.16;5115111;28;20199;-66
2023/08/03 00:30:50;;;;;;;9.45;8.68;;;;;;;23.60;62.47;94428.47;5115430;28;20188;-66
2023/08/03 00:33:18;;;;;;;10.02;9.23;;;;;;;23.63;62.31;94418.31;5115455;28;20202;-66
2023/08/03 00:35:46;;;;;;;11.25;10.15;;;;;;;23.63;62.30;94426.78;5115103;28;20294;-65
2023/08/03 00:38:13;;;;;;;10.73;9.57;;;;;;;23.59;62.40;94420.47;5115325;28;20619;-65
2023/08/03 00:40:42;;;;;;;11.52;9.65;;;;;;;23.56;62.73;94427.78;5115264;28;20524;-65
2023/08/03 00:43:11;;;;;;;10.05;9.07;;;;;;;23.57;62.24;94420.13;5115133;28;20240;-65
2023/08/03 00:45:39;;;;;;;10.27;9.20;;;;;;;23.57;62.36;94423.75;5114727;28;20192;-66
2023/08/03 00:48:07;;;;;;;10.98;9.88;;;;;;;23.57;62.56;94432.22;5114929;28;20207;-66
2023/08/03 00:50:36;;;;;;;10.85;9.75;;;;;;;23.53;62.55;94428.72;5115057;28;20203;-68
2023/08/03 00:53:04;;;;;;;9.95;8.95;;;;;;;23.50;62.73;94416.34;5114750;28;20245;-66
2023/08/03 00:55:32;;;;;;;10.40;9.50;;;;;;;23.51;62.50;94426.34;5114804;28;20208;-66
2023/08/03 00:58:04;;;;;;;10.32;9.32;;;;;;;23.50;62.70;94427.59;5115097;28;20192;-66
2023/08/03 01:00:30;;;;;;;9.75;8.85;;;;;;;23.48;62.68;94423.66;5115184;28;20279;-66
2023/08/03 01:02:58;;;;;;;10.10;9.20;;;;;;;23.43;62.91;94418.59;5114983;28;20196;-66
2023/08/03 01:05:26;;;;;;;9.85;8.95;;;;;;;23.38;62.67;94417.13;5114387;28;20207;-65
2023/08/03 01:07:56;;;;;;;10.18;9.27;;;;;;;23.37;63.00;94421.19;5115208;28;20198;-65
2023/08/03 01:10:25;;;;;;;10.23;9.15;;;;;;;23.34;63.04;94422.09;5114588;28;20248;-65
2023/08/03 01:12:54;;;;;;;10.13;9.23;;;;;;;23.30;62.88;94416.56;5114576;28;20538;-65
2023/08/03 01:15:25;;;;;;;10.27;9.18;;;;;;;23.28;63.07;94421.88;5114446;28;20200;-65
2023/08/03 01:17:54;;;;;;;10.38;9.48;;;;;;;23.27;63.42;94430.75;5115227;28;20203;-65
2023/08/03 01:20:22;;;;;;;10.77;9.77;;;;;;;23.23;63.42;94430.09;5119258;28;20233;-66
2023/08/03 01:22:53;;;;;;;10.65;9.70;;;;;;;23.18;63.59;94428.63;5119276;28;20207;-65
2023/08/03 01:25:21;;;;;;;11.05;9.95;;;;;;;23.19;63.52;94426.59;5118880;28;20242;-65
2023/08/03 01:27:49;;;;;;;13.43;10.77;;;;;;;23.17;63.79;94424.25;5118891;28;20191;-65
2023/08/03 01:30:17;;;;;;;13.43;11.13;;;;;;;23.12;63.91;94426.81;5118859;28;20203;-65
2023/08/03 01:32:45;;;;;;;11.75;10.55;;;;;;;23.09;64.06;94433.34;5118939;28;20207;-65
2023/08/03 01:35:12;;;;;;;12.10;10.80;;;;;;;23.09;63.93;94427.72;5118969;28;20199;-65
2023/08/03 01:37:40;;;;;;;12.40;11.10;;;;;;;23.09;63.92;94427.72;5118792;28;20252;-65
2023/08/03 01:40:15;;;;;;;11.40;10.20;;;;;;;23.08;63.68;94434.59;5118620;28;20234;-65
2023/08/03 01:42:42;;;;;;;11.88;10.68;;;;;;;23.02;64.03;94429.53;5119115;28;20195;-65
2023/08/03 01:45:09;;;;;;;10.93;9.93;;;;;;;22.96;64.07;94424.91;5118772;28;20195;-65
2023/08/03 01:47:36;;;;;;;11.35;10.30;;;;;;;22.95;64.39;94431.75;5118403;28;20286;-66
2023/08/03 01:50:05;;;;;;;11.18;10.07;;;;;;;22.97;64.02;94434.91;5118754;28;20195;-66
2023/08/03 01:52:32;;;;;;;11.05;9.90;;;;;;;22.97;63.55;94441.31;5118406;28;20203;-66
2023/08/03 01:54:59;;;;;;;10.68;9.57;;;;;;;22.94;64.02;94442.22;5118257;28;20196;-66
2023/08/03 01:57:27;;;;;;;10.57;9.60;;;;;;;22.90;64.31;94443.53;5118380;28;20226;-66
2023/08/03 01:59:55;;;;;;;10.52;9.52;;;;;;;22.91;64.35;94443.06;5118346;28;20219;-66
2023/08/03 02:02:23;;;;;;;11.02;9.95;;;;;;;22.91;64.37;94437.44;5118543;28;20192;-66
2023/08/03 02:04:51;;;;;;;12.35;9.98;;;;;;;22.87;64.52;94438.81;5117997;28;20196;-66
2023/08/03 02:07:42;;;;;;;10.88;9.88;;;;;;;22.84;64.51;94429.25;5117892;28;20200;-65
2023/08/03 02:10:12;;;;;;;9.90;8.90;;;;;;;22.80;64.58;94435.00;5118138;28;20196;-65
2023/08/03 02:12:40;;;;;;;10.80;9.50;;;;;;;22.79;64.63;94439.03;5118359;28;20196;-66
2023/08/03 02:15:08;;;;;;;9.85;8.95;;;;;;;22.77;64.71;94435.88;5117992;28;20198;-65
2023/08/03 02:17:35;;;;;;;10.57;9.43;;;;;;;22.78;64.61;94442.28;5117980;28;20206;-65
2023/08/03 02:20:04;;;;;;;11.73;9.93;;;;;;;22.73;64.75;94431.59;5118368;28;20219;-66
2023/08/03 02:22:33;;;;;;;12.25;10.40;;;;;;;22.68;65.20;94441.38;5117932;28;20238;-65
2023/08/03 02:25:04;;;;;;;11.95;10.50;;;;;;;22.65;65.03;94433.03;5117457;28;20230;-65
2023/08/03 02:27:32;;;;;;;11.90;10.70;;;;;;;22.65;64.90;94433.81;5117694;28;20267;-65
2023/08/03 02:30:00;;;;;;;12.73;11.52;;;;;;;22.64;65.03;94442.72;5117829;28;20203;-66
2023/08/03 02:32:27;;;;;;;14.02;11.45;;;;;;;22.65;64.71;94442.25;5117785;28;20199;-66
2023/08/03 02:34:55;;;;;;;12.82;11.52;;;;;;;22.66;65.12;94445.84;5117839;28;20576;-66
2023/08/03 02:37:22;;;;;;;14.52;12.40;;;;;;;22.66;64.74;94452.28;5117826;28;20191;-66
2023/08/03 02:39:50;;;;;;;13.77;12.38;;;;;;;22.65;65.12;94449.91;5117133;28;20215;-66
2023/08/03 02:42:18;;;;;;;12.40;11.10;;;;;;;22.63;65.40;94447.56;5117241;28;20257;-66
2023/08/03 02:44:47;;;;;;;13.45;12.07;;;;;;;22.60;65.35;94440.00;5117675;28;20198;-66
2023/08/03 02:47:14;;;;;;;14.07;11.90;;;;;;;22.58;65.40;94442.47;5117576;28;20192;-66
2023/08/03 02:49:41;;;;;;;13.68;12.38;;;;;;;22.55;65.38;94444.16;5117043;28;20210;-66
2023/08/03 02:52:09;;;;;;;15.52;12.43;;;;;;;22.50;65.72;94450.31;5117843;28;20207;-66
2023/08/03 02:54:37;;;;;;;12.25;11.05;;;;;;;22.46;65.56;94446.81;5117683;28;20192;-66
2023/08/03 02:57:04;;;;;;;12.25;10.95;;;;;;;22.42;65.57;94443.31;5117157;28;20203;-66
2023/08/03 02:59:32;;;;;;;11.93;10.82;;;;;;;22.41;65.57;94455.81;5117152;28;20219;-65
2023/08/03 03:02:01;;;;;;;12.23;11.13;;;;;;;22.44;65.52;94457.72;5117102;28;20196;-67
2023/08/03 03:04:32;;;;;;;12.40;11.13;;;;;;;22.44;65.56;94456.91;5117184;28;20192;-66
2023/08/03 03:07:00;;;;;;;11.50;10.40;;;;;;;22.37;65.64;94457.94;5117103;28;20534;-66
2023/08/03 03:09:27;;;;;;;11.50;10.25;;;;;;;22.32;65.87;94458.47;5116636;28;20199;-66
2023/08/03 03:11:55;;;;;;;10.82;9.80;;;;;;;22.30;65.52;94458.91;5117138;28;20203;-66
2023/08/03 03:14:24;;;;;;;10.23;9.23;;;;;;;22.30;65.51;94463.75;5117368;28;20279;-66
2023/08/03 03:16:51;;;;;;;11.35;10.15;;;;;;;22.27;66.22;94464.63;5117712;28;20192;-65
2023/08/03 03:19:20;;;;;;;11.25;10.07;;;;;;;22.28;66.29;94463.41;5116463;28;20234;-66
2023/08/03 03:21:50;;;;;;;10.50;9.43;;;;;;;22.28;66.15;94471.81;5116721;28;20188;-66
2023/08/03 03:24:21;;;;;;;11.82;10.20;;;;;;;22.26;65.76;94477.06;5116650;28;20235;-65
2023/08/03 03:26:52;;;;;;;11.48;9.82;;;;;;;22.19;66.26;94478.09;5116423;28;20198;-66
2023/08/03 03:29:20;;;;;;;11.43;9.82;;;;;;;22.18;66.40;94476.47;5116784;28;20248;-65
2023/08/03 03:31:48;;;;;;;11.38;10.30;;;;;;;22.19;66.09;94472.47;5116648;28;20276;-66
2023/08/03 03:34:15;;;;;;;11.93;10.52;;;;;;;22.19;66.31;94474.50;5116499;28;20203;-66
2023/08/03 03:36:44;;;;;;;12.13;9.57;;;;;;;22.17;66.25;94477.72;5117269;28;20208;-66
2023/08/03 03:39:10;;;;;;;9.80;9.00;;;;;;;22.17;66.55;94486.16;5116451;28;20207;-66
2023/08/03 03:41:38;;;;;;;10.35;9.25;;;;;;;22.18;66.61;94479.28;5115501;28;20604;-66
2023/08/03 03:44:05;;;;;;;10.23;9.25;;;;;;;22.17;66.49;94485.38;5116512;28;20199;-66
2023/08/03 03:46:34;;;;;;;11.38;9.95;;;;;;;22.20;66.50;94478.88;5116497;28;20196;-66
2023/08/03 03:49:02;;;;;;;10.60;9.50;;;;;;;22.18;66.72;94486.94;5116129;28;20188;-66
2023/08/03 03:51:30;;;;;;;11.32;9.90;;;;;;;22.17;66.57;94486.16;5115906;28;20199;-65
2023/08/03 03:54:01;;;;;;;11.45;10.20;;;;;;;22.13;66.83;94481.84;5116743;28;20180;-65
2023/08/03 03:56:29;;;;;;;11.20;10.10;;;;;;;22.10;66.86;94484.28;5116348;28;20195;-66
2023/08/03 03:58:58;;;;;;;11.85;10.65;;;;;;;22.08;66.89;94486.75;5115782;28;20207;-66
2023/08/03 04:01:29;;;;;;;12.68;10.45;;;;;;;22.11;66.84;94485.88;5115399;28;20211;-65
2023/08/03 04:03:57;;;;;;;15.48;10.82;;;;;;;22.11;66.79;94490.69;5115726;28;20239;-65
2023/08/03 04:06:25;;;;;;;11.98;10.23;;;;;;;22.10;66.82;94484.28;5116033;28;20203;-65
2023/08/03 04:08:53;;;;;;;12.55;10.77;;;;;;;22.11;66.89;94488.69;5115984;28;20196;-66
2023/08/03 04:11:30;;;;;;;13.52;10.13;;;;;;;22.12;66.93;94486.66;5115622;28;20200;-65
2023/08/03 04:14:00;;;;;;;12.00;10.45;;;;;;;22.12;66.90;94486.66;5115846;28;20195;-65
2023/08/03 04:16:28;;;;;;;13.25;10.30;;;;;;;22.15;67.20;94490.63;5115761;28;20677;-65
2023/08/03 04:18:59;;;;;;;12.98;11.52;;;;;;;22.17;66.96;94488.97;5115716;28;20196;-65
2023/08/03 04:21:27;;;;;;;14.15;12.75;;;;;;;22.20;66.90;94496.50;5115261;28;20215;-66
2023/08/03 04:23:57;;;;;;;15.45;13.02;;;;;;;22.24;67.20;94500.00;5114895;28;20222;-66
2023/08/03 04:26:33;;;;;;;24.48;16.73;;;;;;;22.26;67.05;94491.94;5116038;28;20198;-65
2023/08/03 04:29:04;;;;;;;36.30;21.27;;;;;;;22.27;66.91;94495.53;5116362;28;20175;-65
2023/08/03 04:31:38;;;;;;;32.33;21.35;;;;;;;22.30;67.09;94494.66;5115350;28;20221;-65
2023/08/03 04:34:05;;;;;;;33.00;20.80;;;;;;;22.34;66.80;94492.53;5115583;28;20250;-65
2023/08/03 04:36:32;;;;;;;24.80;17.88;;;;;;;22.34;66.54;94504.56;5115689;28;20195;-65
2023/08/03 04:39:00;;;;;;;21.23;16.65;;;;;;;22.34;66.21;94500.97;5115349;28;20199;-66
2023/08/03 04:41:34;;;;;;;23.27;17.42;;;;;;;22.38;66.24;94498.06;5114925;28;20234;-65
2023/08/03 04:44:04;;;;;;;58.00;36.33;;;;;;;22.39;66.22;94500.41;5115421;28;20283;-66
2023/08/03 04:46:35;;;;;;;74.53;43.70;;;;;;;22.41;66.67;94505.59;5114937;28;20195;-66
2023/08/03 04:49:04;;;;;;;47.22;30.17;;;;;;;22.43;66.41;94506.72;5115562;28;20199;-66
2023/08/03 04:51:32;;;;;;;27.40;18.08;;;;;;;22.63;65.89;94519.84;5114810;28;20244;-66
2023/08/03 04:54:04;;;;;;;18.85;14.68;;;;;;;22.58;65.46;94510.69;5115645;28;20192;-66
2023/08/03 04:56:33;;;;;;;21.25;16.48;;;;;;;22.60;65.76;94521.50;5115321;28;20219;-65
2023/08/03 04:59:01;;;;;;;27.02;21.08;;;;;;;22.63;65.78;94520.63;5115129;28;20192;-65
2023/08/03 05:01:31;;;;;;;29.02;23.90;;;;;;;22.66;65.65;94519.75;5114770;28;20215;-65
2023/08/03 05:04:00;;;;;;;30.45;22.75;;;;;;;22.70;65.64;94528.06;5115274;28;20286;-66
2023/08/03 05:06:28;;;;;;;32.65;26.30;;;;;;;22.74;65.50;94523.13;5115272;28;20603;-65
2023/08/03 05:08:56;;;;;;;29.88;23.90;;;;;;;22.78;65.43;94521.00;5114601;28;20230;-65
2023/08/03 05:11:23;;;;;;;30.05;24.75;;;;;;;22.76;65.26;94526.28;5115504;28;20188;-65
2023/08/03 05:13:52;;;;;;;24.65;20.83;;;;;;;22.76;65.14;94524.25;5114486;28;20211;-69
2023/08/03 05:16:24;;;;;;;15.35;13.75;;;;;;;22.79;65.30;94528.97;5114863;28;20210;-66
2023/08/03 05:18:54;;;;;;;15.18;13.68;;;;;;;22.83;65.02;94526.06;5115093;28;20202;-66
2023/08/03 05:21:24;;;;;;;17.20;14.65;;;;;;;22.85;65.19;94534.84;5114826;28;20272;-66
2023/08/03 05:23:55;;;;;;;16.33;14.40;;;;;;;22.85;65.17;94526.41;5115271;28;20603;-66
2023/08/03 05:26:26;;;;;;;15.48;13.70;;;;;;;22.88;64.95;94531.16;5115660;28;20207;-66
2023/08/03 05:29:01;;;;;;;15.82;14.43;;;;;;;22.90;65.00;94528.66;5114771;28;20240;-66
2023/08/03 05:31:29;;;;;;;15.50;13.98;;;;;;;22.94;64.59;94532.19;5114287;28;20195;-66
2023/08/03 05:33:56;;;;;;;14.52;13.07;;;;;;;22.96;64.34;94534.56;5115006;28;20198;-66
2023/08/03 05:36:24;;;;;;;15.35;13.85;;;;;;;22.95;64.35;94527.34;5117117;28;20207;-66
2023/08/03 05:38:56;;;;;;;15.40;13.80;;;;;;;23.00;64.19;94532.44;5114686;28;20206;-66
2023/08/03 05:41:27;;;;;;;16.58;14.57;;;;;;;23.05;64.11;94531.88;5114463;28;20223;-67
2023/08/03 05:44:02;;;;;;;13.90;12.60;;;;;;;23.10;63.67;94536.97;5114689;28;20188;-67
2023/08/03 05:46:32;;;;;;;15.10;13.70;;;;;;;23.12;63.61;94526.03;5114989;28;20199;-66
2023/08/03 05:49:02;;;;;;;15.07;13.52;;;;;;;23.17;63.64;94533.16;5097553;28;20208;-66
2023/08/03 05:51:33;;;;;;;13.57;12.18;;;;;;;23.19;63.70;94533.50;5114167;28;20198;-66
2023/08/03 05:54:01;;;;;;;14.73;13.23;;;;;;;23.22;64.02;94541.03;5114191;28;20295;-66
2023/08/03 05:56:32;;;;;;;13.35;12.13;;;;;;;23.24;64.26;94542.19;5114486;28;20192;-67
2023/08/03 05:59:03;;;;;;;13.38;12.05;;;;;;;23.27;63.98;94548.91;5114130;28;20195;-67
2023/08/03 06:01:31;;;;;;;13.60;12.23;;;;;;;23.32;64.26;94544.78;5114423;28;20211;-66
2023/08/03 06:03:58;;;;;;;13.13;11.85;;;;;;;23.34;64.30;94545.88;5114686;28;20206;-66
2023/08/03 06:06:29;;;;;;;11.85;10.55;;;;;;;23.35;64.16;94553.09;5118172;28;20201;-66
2023/08/03 06:08:58;;;;;;;13.02;11.73;;;;;;;23.41;63.79;94551.28;5118427;28;20283;-67
2023/08/03 06:11:26;;;;;;;13.80;12.30;;;;;;;23.45;63.93;94554.00;5117652;28;20199;-67
2023/08/03 06:13:52;;;;;;;12.15;11.07;;;;;;;23.49;63.81;94544.22;5118909;28;20180;-67
2023/08/03 06:16:23;;;;;;;12.98;11.77;;;;;;;23.58;63.50;94545.56;5118150;28;20184;-66
2023/08/03 06:18:53;;;;;;;13.23;11.90;;;;;;;23.64;63.24;94543.75;5117693;28;20624;-66
2023/08/03 06:21:20;;;;;;;11.82;10.75;;;;;;;23.77;62.24;94548.19;5117818;28;20223;-66
2023/08/03 06:23:51;;;;;;;12.82;11.63;;;;;;;23.84;62.32;94547.16;5117589;28;20207;-66
2023/08/03 06:26:19;;;;;;;15.85;12.70;;;;;;;23.86;62.17;94547.50;5118292;28;20256;-66
2023/08/03 06:28:53;;;;;;;12.98;11.68;;;;;;;23.94;61.14;94537.59;5117636;28;20200;-66
2023/08/03 06:31:24;;;;;;;14.38;12.95;;;;;;;24.00;61.68;94549.03;5117554;28;20202;-66
2023/08/03 06:33:56;;;;;;;15.88;12.48;;;;;;;23.98;61.62;94546.69;5117597;28;20603;-66
2023/08/03 06:36:28;;;;;;;13.40;12.10;;;;;;;23.99;61.56;94545.44;5117656;28;20200;-66
2023/08/03 06:38:57;;;;;;;12.57;11.38;;;;;;;24.08;61.30;94547.59;5117677;28;20571;-66
2023/08/03 06:41:26;;;;;;;12.68;11.38;;;;;;;24.19;60.28;94552.88;5117193;28;20215;-66
2023/08/03 06:43:55;;;;;;;12.95;11.55;;;;;;;24.35;60.36;94549.09;5117458;28;20214;-66
2023/08/03 06:46:29;;;;;;;13.70;12.48;;;;;;;24.35;60.67;94546.28;5117314;28;20206;-66
2023/08/03 06:48:58;;;;;;;14.20;12.68;;;;;;;24.30;61.13;94558.16;5118631;28;20521;-67
2023/08/03 06:51:28;;;;;;;12.27;11.27;;;;;;;24.29;60.34;94557.31;5117629;28;20192;-66
2023/08/03 06:53:59;;;;;;;12.30;11.10;;;;;;;24.40;60.00;94557.00;5117703;28;20203;-66
2023/08/03 06:56:31;;;;;;;12.25;11.02;;;;;;;24.55;59.53;94558.09;5116964;28;20542;-67
2023/08/03 06:58:59;;;;;;;13.40;12.02;;;;;;;24.65;58.97;94544.84;5117154;28;20242;-67
2023/08/03 07:01:27;;;;;;;12.15;10.95;;;;;;;24.71;58.76;94554.31;5116987;28;20558;-67
2023/08/03 07:03:55;;;;;;;12.35;11.25;;;;;;;24.72;58.79;94551.00;5116883;28;20199;-68
2023/08/03 07:06:23;;;;;;;12.02;10.93;;;;;;;24.77;58.71;94543.25;5117405;28;20196;-67
2023/08/03 07:08:51;;;;;;;12.68;11.38;;;;;;;24.80;58.74;94548.75;5117260;28;20188;-67
2023/08/03 07:11:19;;;;;;;12.43;11.15;;;;;;;24.85;58.38;94545.34;5116894;28;20203;-67
2023/08/03 07:13:48;;;;;;;12.35;11.15;;;;;;;24.90;58.07;94539.09;5117202;28;20616;-67
2023/08/03 07:16:16;;;;;;;12.23;11.13;;;;;;;24.94;58.15;94539.75;5116477;28;20202;-67
2023/08/03 07:18:46;;;;;;;12.52;11.32;;;;;;;24.99;58.29;94541.22;5117261;28;20212;-67
2023/08/03 07:21:17;;;;;;;12.57;11.35;;;;;;;25.05;57.84;94533.72;5117049;28;20264;-67
2023/08/03 07:23:45;;;;;;;12.30;11.20;;;;;;;25.08;57.68;94538.44;5116464;28;20192;-67
2023/08/03 07:26:18;;;;;;;12.35;11.32;;;;;;;25.10;57.80;94538.81;5117368;28;20199;-67
2023/08/03 07:28:50;;;;;;;12.30;11.30;;;;;;;25.14;57.77;94539.44;5116612;28;20265;-66
2023/08/03 07:31:18;;;;;;;15.00;13.68;;;;;;;25.18;57.46;94536.50;5116730;28;20652;-68
2023/08/03 07:33:54;;;;;;;15.30;13.75;;;;;;;25.16;57.87;94536.97;5116601;28;20312;-67
2023/08/03 07:36:22;;;;;;;13.25;11.98;;;;;;;25.14;57.90;94535.84;5116883;28;20199;-67
2023/08/03 07:38:48;;;;;;;14.13;12.75;;;;;;;25.11;57.81;94540.38;5116542;28;20649;-67
2023/08/03 07:41:18;;;;;;;11.95;10.85;;;;;;;25.13;57.39;94537.09;5117665;28;20208;-67
2023/08/03 07:43:47;;;;;;;12.80;11.50;;;;;;;25.20;57.35;94533.97;5116702;28;20207;-67
2023/08/03 07:46:18;;;;;;;12.93;11.70;;;;;;;25.32;57.39;94538.00;5116554;28;20203;-67
2023/08/03 07:48:46;;;;;;;13.40;12.23;;;;;;;25.42;56.71;94537.59;5116955;28;20203;-67
2023/08/03 07:51:16;;;;;;;13.10;11.80;;;;;;;25.48;56.12;94540.56;5116601;28;20207;-67
2023/08/03 07:53:46;;;;;;;13.80;12.68;;;;;;;25.50;56.72;94535.25;5116477;28;20184;-67
2023/08/03 07:56:19;;;;;;;13.40;12.30;;;;;;;25.51;55.94;94533.22;5116381;28;20202;-66
2023/08/03 07:58:50;;;;;;;13.65;12.20;;;;;;;25.50;56.01;94535.25;5115939;28;20206;-67
2023/08/03 08:01:19;;;;;;;13.25;11.93;;;;;;;25.50;55.99;94528.84;5116040;28;20561;-67
2023/08/03 08:03:47;;;;;;;12.85;11.65;;;;;;;25.64;55.37;94531.09;5115989;28;20192;-67
2023/08/03 08:06:24;;;;;;;13.50;12.20;;;;;;;25.75;53.85;94534.28;5116610;28;20187;-67
2023/08/03 08:08:52;;;;;;;12.55;11.38;;;;;;;25.76;54.59;94527.38;5115668;28;20623;-66
2023/08/03 08:11:20;;;;;;;13.48;12.18;;;;;;;25.79;55.04;94528.50;5116028;28;20538;-67
2023/08/03 08:13:48;;;;;;;13.05;11.82;;;;;;;25.85;54.90;94521.75;5115334;28;20188;-69
2023/08/03 08:16:17;;;;;;;13.57;12.20;;;;;;;25.97;54.99;94525.75;5115783;28;20203;-66
2023/08/03 08:18:45;;;;;;;13.15;11.95;;;;;;;26.10;54.32;94523.56;5115561;28;20203;-66
2023/08/03 08:21:15;;;;;;;14.18;12.80;;;;;;;26.17;55.33;94522.47;5115446;28;20222;-67
2023/08/03 08:23:45;;;;;;;13.57;12.50;;;;;;;26.31;54.61;94519.06;5115828;28;20539;-66
2023/08/03 08:26:14;;;;;;;13.07;11.90;;;;;;;26.35;54.45;94510.44;5115261;28;20184;-67
2023/08/03 08:28:43;;;;;;;12.45;11.35;;;;;;;26.39;54.22;94508.22;5115172;28;20206;-67
2023/08/03 08:31:12;;;;;;;13.90;12.70;;;;;;;26.47;52.58;94505.91;5115837;28;20204;-66
2023/08/03 08:33:41;;;;;;;12.73;11.50;;;;;;;26.52;52.96;94502.47;5114993;28;20196;-67
2023/08/03 08:36:07;;;;;;;12.73;11.52;;;;;;;26.60;52.45;94506.53;5116126;28;20618;-66
2023/08/03 08:38:35;;;;;;;13.77;12.38;;;;;;;26.72;52.75;94502.75;5115312;28;20200;-66
2023/08/03 08:41:06;;;;;;;15.25;13.95;;;;;;;26.76;52.64;94502.59;5115865;28;20219;-66
2023/08/03 08:43:33;;;;;;;14.90;13.52;;;;;;;26.76;52.68;94497.75;5115212;28;20200;-67
2023/08/03 08:46:03;;;;;;;12.98;11.68;;;;;;;26.84;52.23;94499.00;5114871;28;20623;-66
2023/08/03 08:48:30;;;;;;;13.55;12.32;;;;;;;26.95;52.11;94503.41;5114906;28;20199;-67
2023/08/03 08:51:03;;;;;;;12.90;11.82;;;;;;;26.99;51.71;94493.47;5115073;28;20206;-66
2023/08/03 08:53:32;;;;;;;13.30;12.00;;;;;;;27.03;51.34;94494.09;5115112;28;20203;-66
2023/08/03 08:56:05;;;;;;;12.65;11.55;;;;;;;27.03;51.49;94491.25;5115506;28;20203;-66
2023/08/03 08:58:33;;;;;;;15.35;13.80;;;;;;;27.10;52.45;94482.44;5114624;28;20187;-66
2023/08/03 09:01:06;;;;;;;13.43;12.23;;;;;;;27.24;51.24;94486.69;5114608;28;20188;-66
2023/08/03 09:03:48;;;;;;;13.15;11.90;;;;;;;27.45;50.61;94493.41;5114945;28;20260;-66
2023/08/03 09:06:19;;;;;;;13.75;12.55;;;;;;;27.75;49.89;94485.13;5114731;28;20199;-67
2023/08/03 09:08:58;;;;;;;13.15;11.93;;;;;;;27.82;49.15;94479.88;5115105;28;20327;-66
2023/08/03 09:11:48;;;;;;;12.95;11.95;;;;;;;27.90;48.79;94480.31;5114788;28;20203;-66
2023/08/03 09:14:16;;;;;;;12.45;11.35;;;;;;;27.91;48.68;94472.59;5114872;28;20290;-66
2023/08/03 09:16:44;;;;;;;12.77;11.63;;;;;;;28.11;48.69;94477.69;5114661;28;20207;-66
2023/08/03 09:19:11;;;;;;;12.52;11.45;;;;;;;28.27;49.34;94475.19;5114817;28;20192;-66
2023/08/03 09:21:40;;;;;;;12.70;11.65;;;;;;;28.25;48.12;94479.78;5114437;28;20260;-66
2023/08/03 09:24:22;;;;;;;12.82;11.82;;;;;;;28.34;47.60;94474.06;5114428;28;20663;-66
2023/08/03 09:26:56;;;;;;;12.60;11.65;;;;;;;28.35;47.70;94480.50;5114216;28;20233;-66
2023/08/03 09:29:29;;;;;;;12.68;11.63;;;;;;;28.51;47.17;94471.59;5115613;28;20244;-66
2023/08/03 09:32:02;;;;;;;12.65;11.65;;;;;;;28.52;47.19;94471.09;5114518;28;20260;-66
2023/08/03 09:34:40;;;;;;;12.52;11.32;;;;;;;28.49;46.74;94462.78;5115062;28;20284;-66
2023/08/03 09:37:08;;;;;;;13.02;11.93;;;;;;;28.71;47.47;94463.22;5114515;28;20202;-66
2023/08/03 09:39:38;;;;;;;14.00;12.77;;;;;;;28.91;46.76;94464.63;5116023;28;20211;-66
2023/08/03 09:42:10;;;;;;;13.25;12.10;;;;;;;28.91;47.59;94456.91;5119073;28;20212;-66
2023/08/03 09:44:39;;;;;;;12.82;11.60;;;;;;;28.88;46.88;94455.03;5118785;28;20203;-66
2023/08/03 09:47:10;;;;;;;14.05;12.77;;;;;;;28.72;45.93;94449.81;5119155;28;20192;-66
2023/08/03 09:49:41;;;;;;;13.45;12.40;;;;;;;28.63;47.29;94450.69;5118277;28;20622;-66
2023/08/03 09:52:10;;;;;;;14.18;12.40;;;;;;;28.67;47.38;94442.78;5118867;28;20712;-66
2023/08/03 09:54:42;;;;;;;14.40;12.82;;;;;;;29.11;46.82;94444.09;5119156;28;20290;-66
2023/08/03 09:57:18;;;;;;;13.73;12.45;;;;;;;29.32;46.63;94439.31;5118993;28;20284;-66
2023/08/03 09:59:47;;;;;;;13.38;12.20;;;;;;;29.43;45.42;94448.00;5119197;28;20195;-67
2023/08/03 10:02:17;;;;;;;13.00;11.80;;;;;;;29.42;44.82;94447.22;5118517;28;20211;-67
2023/08/03 10:04:52;;;;;;;14.10;12.90;;;;;;;29.31;44.93;94440.59;5118336;28;20533;-67
2023/08/03 10:07:23;;;;;;;13.77;12.57;;;;;;;29.41;45.37;94444.88;5118409;28;20195;-67
2023/08/03 10:09:57;;;;;;;14.32;13.02;;;;;;;29.71;45.31;94443.59;5118568;28;20292;-66
2023/08/03 10:12:36;;;;;;;14.43;13.18;;;;;;;29.80;44.95;94430.53;5118399;28;20213;-66
2023/08/03 10:15:09;;;;;;;13.75;12.35;;;;;;;29.86;44.82;94434.25;5118283;28;20195;-66
2023/08/03 10:17:38;;;;;;;14.50;13.40;;;;;;;30.12;43.88;94426.59;5117996;28;20208;-66
2023/08/03 10:20:10;;;;;;;13.55;12.38;;;;;;;30.26;44.37;94421.38;5117973;28;20213;-66
2023/08/03 10:22:38;;;;;;;13.88;12.77;;;;;;;30.25;43.64;94419.78;5118746;28;20214;-66
2023/08/03 10:25:21;;;;;;;14.60;13.07;;;;;;;30.14;44.16;94412.66;5117627;28;20224;-66
2023/08/03 10:28:21;;;;;;;14.23;13.00;;;;;;;30.27;43.14;94406.63;5117501;28;20206;-67
2023/08/03 10:31:14;;;;;;;13.68;12.48;;;;;;;30.16;42.84;94407.25;5108918;28;20635;-67
2023/08/03 10:34:08;;;;;;;13.70;12.60;;;;;;;30.19;43.95;94396.97;5118573;28;20230;-67
2023/08/03 10:36:57;;;;;;;13.27;12.18;;;;;;;30.29;43.78;94406.16;5114536;28;20538;-67
2023/08/03 10:39:50;;;;;;;12.82;11.75;;;;;;;30.34;43.08;94397.66;5117307;28;20245;-66
2023/08/03 10:42:32;;;;;;;14.02;12.85;;;;;;;30.42;42.98;94395.94;5117546;28;20239;-66
2023/08/03 10:45:35;;;;;;;13.77;12.60;;;;;;;30.53;42.76;94395.28;5118432;28;20219;-67
2023/08/03 10:48:34;;;;;;;14.55;13.13;;;;;;;30.58;42.74;94391.75;5113231;28;20210;-67
2023/08/03 10:51:04;;;;;;;13.10;11.80;;;;;;;30.63;42.46;94388.16;5117201;28;20195;-67
2023/08/03 10:53:34;;;;;;;14.13;12.93;;;;;;;30.77;41.76;94395.06;5117385;28;20615;-67
2023/08/03 10:56:10;;;;;;;14.05;12.85;;;;;;;30.86;41.44;94394.13;5117181;28;20195;-67
2023/08/03 10:58:47;;;;;;;12.55;11.55;;;;;;;30.85;41.11;94389.72;5117809;28;20611;-67
2023/08/03 11:01:16;;;;;;;13.25;12.05;;;;;;;30.80;41.18;94393.31;5117196;28;20202;-67
2023/08/03 11:03:44;;;;;;;13.68;12.55;;;;;;;30.80;41.22;94385.53;5116918;28;20284;-67
2023/08/03 11:06:14;;;;;;;12.90;11.68;;;;;;;31.15;40.53;94381.69;5117375;28;20204;-66
2023/08/03 11:08:43;;;;;;;13.60;12.25;;;;;;;31.23;40.32;94379.16;5117093;28;20207;-67
2023/08/03 11:11:12;;;;;;;13.50;12.20;;;;;;;31.52;39.35;94376.09;5116810;28;20196;-67
2023/08/03 11:13:40;;;;;;;12.82;11.65;;;;;;;31.57;38.91;94371.69;5117116;28;20199;-66
2023/08/03 11:16:08;;;;;;;13.23;12.13;;;;;;;31.48;39.49;94374.72;5117525;28;20274;-67
2023/08/03 11:18:36;;;;;;;13.30;11.98;;;;;;;31.68;39.26;94374.63;5116545;28;20218;-66
2023/08/03 11:21:09;;;;;;;12.82;11.73;;;;;;;31.84;37.89;94373.16;5116003;28;20635;-66
2023/08/03 11:23:40;;;;;;;12.48;11.45;;;;;;;31.90;38.61;94368.31;5116585;28;20227;-67
2023/08/03 11:26:09;;;;;;;12.63;11.55;;;;;;;31.85;38.94;94369.81;5117397;28;20249;-67
2023/08/03 11:28:42;;;;;;;10.32;9.40;;;;;;;31.96;35.49;94360.56;5116770;28;20196;-67
2023/08/03 11:31:19;;;;;;;8.40;7.68;;;;;;;32.12;33.42;94345.59;5116960;28;20203;-67
2023/08/03 11:33:50;;;;;;;8.50;7.80;;;;;;;32.24;33.43;94351.34;5116590;28;20226;-67